createdAt,value
2018-11-25T00:00:10.590Z,28.20
2018-11-25T00:02:37.870Z,24.87
2018-11-25T00:05:05.967Z,26.33
2018-11-25T00:07:34.825Z,24.03
2018-11-25T00:10:00.702Z,26.20
2018-11-25T00:12:28.040Z,25.60
2018-11-25T00:14:55.407Z,22.33
2018-11-25T00:17:22.735Z,25.97
2018-11-25T00:19:50.144Z,21.47
2018-11-25T00:22:17.514Z,25.83
2018-11-25T00:24:44.884Z,28.97
2018-11-25T00:27:12.240Z,23.47
2018-11-25T00:29:39.607Z,26.87
2018-11-25T00:32:07.006Z,24.80
2018-11-25T00:34:34.369Z,27.63
2018-11-25T00:37:01.706Z,24.10
2018-11-25T00:39:29.121Z,26.30
2018-11-25T00:41:56.447Z,25.40
2018-11-25T00:44:23.786Z,26.53
2018-11-25T00:46:51.140Z,36.50
2018-11-25T00:49:18.478Z,32.77
2018-11-25T00:51:45.809Z,31.80
2018-11-25T00:54:13.214Z,27.40
2018-11-25T00:56:40.538Z,26.23
2018-11-25T00:59:08.585Z,27.47
2018-11-25T01:01:35.230Z,30.17
2018-11-25T01:04:02.689Z,28.13
2018-11-25T01:06:30.231Z,30.70
2018-11-25T01:08:57.590Z,31.13
2018-11-25T01:11:24.954Z,26.30
2018-11-25T01:13:52.310Z,25.80
2018-11-25T01:16:19.653Z,29.27
2018-11-25T01:18:47.030Z,25.63
2018-11-25T01:21:14.418Z,28.73
2018-11-25T01:23:41.771Z,30.10
2018-11-25T01:26:09.185Z,32.00
2018-11-25T01:28:36.627Z,32.70
2018-11-25T01:31:04.267Z,32.30
2018-11-25T01:33:31.690Z,28.43
2018-11-25T01:35:59.057Z,27.10
2018-11-25T01:38:26.422Z,31.40
2018-11-25T01:40:53.758Z,31.00
2018-11-25T01:43:21.122Z,27.57
2018-11-25T01:45:48.466Z,29.13
2018-11-25T01:48:15.834Z,28.40
2018-11-25T01:50:43.186Z,32.43
2018-11-25T01:53:10.615Z,33.23
2018-11-25T01:55:37.899Z,31.80
2018-11-25T01:58:05.656Z,30.73
2018-11-25T02:00:33.059Z,34.60
2018-11-25T02:03:00.460Z,36.23
2018-11-25T02:05:27.827Z,31.53
2018-11-25T02:07:55.187Z,33.23
2018-11-25T02:10:22.543Z,30.00
2018-11-25T02:12:49.954Z,29.70
2018-11-25T02:15:17.429Z,30.60
2018-11-25T02:17:44.891Z,31.10
2018-11-25T02:20:16.741Z,30.43
2018-11-25T02:22:44.084Z,31.70
2018-11-25T02:25:11.513Z,29.40
2018-11-25T02:27:38.875Z,29.53
2018-11-25T02:30:08.807Z,37.63
2018-11-25T02:32:36.140Z,30.63
2018-11-25T02:35:04.294Z,35.20
2018-11-25T02:37:31.678Z,43.23
2018-11-25T02:39:59.050Z,35.83
2018-11-25T02:42:26.430Z,37.33
2018-11-25T02:44:53.775Z,36.27
2018-11-25T02:47:21.162Z,31.37
2018-11-25T02:49:48.590Z,32.50
2018-11-25T02:52:15.963Z,35.93
2018-11-25T02:54:43.344Z,32.43
2018-11-25T02:57:10.697Z,28.43
2018-11-25T02:59:38.069Z,33.17
2018-11-25T03:02:05.491Z,45.10
2018-11-25T03:04:32.843Z,38.33
2018-11-25T03:07:00.135Z,35.30
2018-11-25T03:09:27.514Z,27.73
2018-11-25T03:11:54.895Z,35.43
2018-11-25T03:14:22.280Z,30.50
2018-11-25T03:16:49.649Z,32.10
2018-11-25T03:19:17.045Z,31.10
2018-11-25T03:21:44.439Z,32.60
2018-11-25T03:24:11.774Z,29.27
2018-11-25T03:26:39.142Z,33.13
2018-11-25T03:29:06.526Z,39.13
2018-11-25T03:31:33.946Z,39.17
2018-11-25T03:34:01.332Z,44.07
2018-11-25T03:36:28.679Z,34.07
2018-11-25T03:38:56.072Z,29.73
2018-11-25T03:41:23.486Z,27.37
2018-11-25T03:43:50.853Z,33.70
2018-11-25T03:46:18.242Z,31.83
2018-11-25T03:48:45.603Z,31.53
2018-11-25T03:51:12.984Z,40.93
2018-11-25T03:53:40.329Z,29.40
2018-11-25T03:56:07.747Z,27.53
2018-11-25T03:58:35.108Z,29.30
2018-11-25T04:01:02.517Z,37.30
2018-11-25T04:03:29.913Z,35.73
2018-11-25T04:05:57.342Z,44.60
2018-11-25T04:08:24.712Z,33.30
2018-11-25T04:10:52.100Z,34.87
2018-11-25T04:13:19.442Z,30.27
2018-11-25T04:15:46.856Z,33.07
2018-11-25T04:18:14.127Z,30.43
2018-11-25T04:20:41.497Z,38.80
2018-11-25T04:23:08.866Z,30.10
2018-11-25T04:25:36.247Z,29.70
2018-11-25T04:28:03.711Z,34.50
2018-11-25T04:30:31.135Z,34.87
2018-11-25T04:32:58.508Z,33.37
2018-11-25T04:35:25.858Z,32.53
2018-11-25T04:37:53.238Z,34.20
2018-11-25T04:40:20.623Z,32.73
2018-11-25T04:42:47.965Z,38.07
2018-11-25T04:45:16.077Z,33.27
2018-11-25T04:47:43.958Z,34.63
2018-11-25T04:50:13.547Z,38.80
2018-11-25T04:52:41.183Z,33.73
2018-11-25T04:55:08.892Z,32.77
2018-11-25T04:57:36.267Z,34.77
2018-11-25T05:00:05.490Z,35.33
2018-11-25T05:02:32.827Z,33.27
2018-11-25T05:05:00.171Z,31.70
2018-11-25T05:07:27.565Z,34.60
2018-11-25T05:09:54.958Z,32.57
2018-11-25T05:12:22.331Z,35.90
2018-11-25T05:14:49.744Z,33.80
2018-11-25T05:17:17.113Z,32.00
2018-11-25T05:19:44.575Z,31.13
2018-11-25T05:22:11.989Z,35.43
2018-11-25T05:24:39.363Z,32.73
2018-11-25T05:27:06.713Z,34.40
2018-11-25T05:29:34.071Z,36.70
2018-11-25T05:32:01.423Z,41.47
2018-11-25T05:34:28.882Z,40.90
2018-11-25T05:36:56.291Z,43.23
2018-11-25T05:39:23.697Z,43.87
2018-11-25T05:41:51.122Z,53.03
2018-11-25T05:44:18.473Z,81.30
2018-11-25T05:46:45.852Z,74.60
2018-11-25T05:49:13.235Z,94.63
2018-11-25T05:51:40.590Z,63.43
2018-11-25T05:54:07.945Z,81.50
2018-11-25T05:56:35.351Z,52.93
2018-11-25T05:59:02.711Z,38.53
2018-11-25T06:01:30.115Z,50.87
2018-11-25T06:03:57.539Z,116.33
2018-11-25T06:06:24.983Z,73.63
2018-11-25T06:08:52.365Z,81.80
2018-11-25T06:11:19.808Z,78.37
2018-11-25T06:13:47.134Z,57.47
2018-11-25T06:16:14.538Z,63.70
2018-11-25T06:18:41.880Z,46.10
2018-11-25T06:21:09.281Z,53.00
2018-11-25T06:23:36.612Z,87.27
2018-11-25T06:26:04.207Z,73.90
2018-11-25T06:28:31.561Z,38.57
2018-11-25T06:30:58.927Z,66.60
2018-11-25T06:33:26.294Z,53.53
2018-11-25T06:35:53.612Z,41.93
2018-11-25T06:38:20.938Z,68.37
2018-11-25T06:40:48.291Z,54.13
2018-11-25T06:43:15.688Z,67.97
2018-11-25T06:45:43.029Z,59.60
2018-11-25T06:48:10.387Z,41.97
2018-11-25T06:50:37.722Z,65.20
2018-11-25T06:53:05.174Z,53.07
2018-11-25T06:55:32.489Z,43.53
2018-11-25T06:57:59.885Z,45.53
2018-11-25T07:00:27.299Z,40.13
2018-11-25T07:02:54.736Z,40.47
2018-11-25T07:05:22.098Z,38.03
2018-11-25T07:07:49.506Z,40.23
2018-11-25T07:10:20.923Z,44.63
2018-11-25T07:12:49.562Z,40.53
2018-11-25T07:15:17.554Z,38.83
2018-11-25T07:17:44.989Z,37.13
2018-11-25T07:20:13.428Z,38.93
2018-11-25T07:22:40.788Z,36.50
2018-11-25T07:25:13.524Z,50.63
2018-11-25T07:27:40.885Z,46.20
2018-11-25T07:30:12.772Z,40.40
2018-11-25T07:32:41.025Z,67.93
2018-11-25T07:35:08.442Z,43.90
2018-11-25T07:37:36.006Z,43.67
2018-11-25T07:40:06.260Z,34.33
2018-11-25T07:42:33.575Z,31.97
2018-11-25T07:45:00.971Z,31.90
2018-11-25T07:47:28.347Z,39.80
2018-11-25T07:49:55.705Z,66.07
2018-11-25T07:52:23.112Z,38.10
2018-11-25T07:54:51.443Z,36.47
2018-11-25T07:57:18.819Z,32.77
2018-11-25T07:59:46.243Z,39.30
2018-11-25T08:02:13.530Z,27.93
2018-11-25T08:04:40.936Z,32.80
2018-11-25T08:07:08.367Z,37.53
2018-11-25T08:09:35.717Z,32.40
2018-11-25T08:12:03.087Z,39.03
2018-11-25T08:14:30.397Z,46.57
2018-11-25T08:16:57.791Z,35.13
2018-11-25T08:19:25.179Z,37.90
2018-11-25T08:21:52.549Z,38.10
2018-11-25T08:24:19.963Z,36.70
2018-11-25T08:26:47.288Z,51.33
2018-11-25T08:29:14.705Z,46.80
2018-11-25T08:31:42.104Z,59.30
2018-11-25T08:34:09.486Z,40.87
2018-11-25T08:36:36.888Z,34.53
2018-11-25T08:39:07.386Z,41.50
2018-11-25T08:41:34.974Z,36.40
2018-11-25T08:44:02.397Z,37.60
2018-11-25T08:46:29.787Z,37.43
2018-11-25T08:48:57.194Z,37.27
2018-11-25T08:51:24.547Z,38.63
2018-11-25T08:53:51.967Z,27.70
2018-11-25T08:56:19.304Z,28.60
2018-11-25T08:58:46.672Z,28.07
2018-11-25T09:01:13.984Z,27.23
2018-11-25T09:03:41.378Z,28.87
2018-11-25T09:06:08.857Z,28.80
2018-11-25T09:08:36.215Z,24.53
2018-11-25T09:11:03.579Z,26.07
2018-11-25T09:13:30.961Z,25.60
2018-11-25T09:15:58.298Z,29.73
2018-11-25T09:18:25.771Z,24.80
2018-11-25T09:20:53.090Z,22.67
2018-11-25T09:23:20.465Z,23.83
2018-11-25T09:25:47.851Z,21.00
2018-11-25T09:28:15.205Z,22.03
2018-11-25T09:30:42.545Z,22.83
2018-11-25T09:33:09.886Z,30.30
2018-11-25T09:35:37.303Z,23.07
2018-11-25T09:38:04.835Z,26.70
2018-11-25T09:40:32.185Z,25.20
2018-11-25T09:42:59.541Z,25.57
2018-11-25T09:45:26.924Z,21.00
2018-11-25T09:47:54.316Z,21.80
2018-11-25T09:50:22.430Z,19.57
2018-11-25T09:52:49.942Z,21.47
2018-11-25T09:55:18.394Z,23.53
2018-11-25T09:57:49.902Z,22.13
2018-11-25T10:00:20.245Z,20.37
2018-11-25T10:02:47.660Z,21.10
2018-11-25T10:05:15.036Z,23.70
2018-11-25T10:07:42.453Z,23.87
2018-11-25T10:10:15.202Z,20.97
2018-11-25T10:12:42.585Z,22.00
2018-11-25T10:15:11.095Z,24.63
2018-11-25T10:17:38.537Z,27.00
2018-11-25T10:20:13.831Z,30.37
2018-11-25T10:22:41.281Z,27.23
2018-11-25T10:25:11.919Z,26.43
2018-11-25T10:27:39.246Z,24.73
2018-11-25T10:30:37.748Z,28.23
2018-11-25T10:33:07.020Z,23.30
2018-11-25T10:35:34.379Z,25.47
2018-11-25T10:38:01.721Z,22.43
2018-11-25T10:40:29.141Z,26.20
2018-11-25T10:42:56.559Z,58.67
2018-11-25T10:45:25.673Z,20.97
2018-11-25T10:47:53.178Z,25.90
2018-11-25T10:50:20.793Z,22.87
2018-11-25T10:52:48.254Z,21.40
2018-11-25T10:55:16.453Z,23.33
2018-11-25T10:57:44.656Z,20.40
2018-11-25T11:00:35.981Z,22.40
2018-11-25T11:03:09.688Z,19.77
2018-11-25T11:05:42.675Z,20.50
2018-11-25T11:08:10.254Z,35.00
2018-11-25T11:10:38.070Z,30.77
2018-11-25T11:13:06.347Z,19.80
2018-11-25T11:15:33.849Z,26.07
2018-11-25T11:18:01.221Z,23.70
2018-11-25T11:20:28.514Z,20.70
2018-11-25T11:22:55.871Z,19.30
2018-11-25T11:25:23.284Z,18.43
2018-11-25T11:27:50.563Z,23.73
2018-11-25T11:30:17.936Z,21.20
2018-11-25T11:32:46.605Z,22.67
2018-11-25T11:35:14.016Z,22.83
2018-11-25T11:37:41.403Z,58.27
2018-11-25T11:40:12.779Z,21.23
2018-11-25T11:42:40.153Z,21.37
2018-11-25T11:45:09.248Z,18.97
2018-11-25T11:47:36.638Z,23.90
2018-11-25T11:50:06.768Z,25.90
2018-11-25T11:52:34.132Z,27.40
2018-11-25T11:55:01.521Z,25.57
2018-11-25T11:57:28.892Z,22.97
2018-11-25T11:59:56.260Z,29.93
2018-11-25T12:02:23.688Z,22.50
2018-11-25T12:04:51.104Z,23.30
2018-11-25T12:07:18.525Z,16.50
2018-11-25T12:09:45.932Z,17.50
2018-11-25T12:12:14.407Z,16.17
2018-11-25T12:14:41.743Z,15.90
2018-11-25T12:17:09.068Z,15.43
2018-11-25T12:19:36.477Z,16.13
2018-11-25T12:22:04.026Z,13.80
2018-11-25T12:24:31.401Z,15.63
2018-11-25T12:26:58.798Z,15.80
2018-11-25T12:29:26.149Z,15.53
2018-11-25T12:31:53.554Z,12.20
2018-11-25T12:34:20.935Z,13.10
2018-11-25T12:36:48.376Z,14.33
2018-11-25T12:39:15.719Z,14.03
2018-11-25T12:41:43.178Z,16.33
2018-11-25T12:44:10.550Z,13.10
2018-11-25T12:46:37.914Z,13.80
2018-11-25T12:49:05.314Z,14.00
2018-11-25T12:51:32.705Z,11.73
2018-11-25T12:54:00.037Z,14.23
2018-11-25T12:56:27.383Z,14.57
2018-11-25T12:58:54.746Z,10.70
2018-11-25T13:01:22.176Z,13.57
2018-11-25T13:03:49.560Z,13.47
2018-11-25T13:06:16.902Z,14.43
2018-11-25T13:08:44.267Z,12.00
2018-11-25T13:11:11.695Z,14.90
2018-11-25T13:13:39.094Z,16.53
2018-11-25T13:16:06.566Z,15.33
2018-11-25T13:18:33.976Z,15.37
2018-11-25T13:21:01.407Z,15.83
2018-11-25T13:23:28.756Z,13.43
2018-11-25T13:25:56.183Z,12.60
2018-11-25T13:28:23.567Z,15.53
2018-11-25T13:30:50.932Z,13.27
2018-11-25T13:33:18.322Z,13.83
2018-11-25T13:35:45.735Z,14.20
2018-11-25T13:38:13.093Z,11.97
2018-11-25T13:40:40.414Z,14.77
2018-11-25T13:43:07.937Z,12.20
2018-11-25T13:45:35.312Z,14.03
2018-11-25T13:48:02.719Z,14.43
2018-11-25T13:50:30.184Z,13.10
2018-11-25T13:52:57.560Z,13.40
2018-11-25T13:55:26.980Z,11.67
2018-11-25T13:57:54.449Z,14.17
2018-11-25T14:00:34.643Z,11.80
2018-11-25T14:03:01.736Z,11.60
2018-11-25T14:05:29.193Z,12.33
2018-11-25T14:07:56.691Z,11.33
2018-11-25T14:10:28.055Z,11.30
2018-11-25T14:12:55.437Z,13.50
2018-11-25T14:15:22.820Z,12.13
2018-11-25T14:17:50.220Z,10.23
2018-11-25T14:20:17.628Z,10.00
2018-11-25T14:22:45.095Z,10.03
2018-11-25T14:25:14.237Z,12.30
2018-11-25T14:27:41.804Z,13.70
2018-11-25T14:30:13.450Z,14.70
2018-11-25T14:32:39.460Z,12.50
2018-11-25T14:35:09.702Z,12.53
2018-11-25T14:37:37.197Z,11.60
2018-11-25T14:40:07.031Z,12.50
2018-11-25T14:42:34.414Z,13.40
2018-11-25T14:45:01.879Z,12.13
2018-11-25T14:47:29.640Z,12.87
2018-11-25T14:49:57.135Z,11.60
2018-11-25T14:52:24.547Z,12.73
2018-11-25T14:54:51.891Z,11.90
2018-11-25T14:57:19.331Z,11.40
2018-11-25T14:59:46.675Z,11.67
2018-11-25T15:02:14.066Z,10.17
2018-11-25T15:04:41.532Z,12.57
2018-11-25T15:07:09.015Z,13.67
2018-11-25T15:09:36.410Z,13.43
2018-11-25T15:12:03.893Z,16.33
2018-11-25T15:14:31.267Z,12.47
2018-11-25T15:16:58.637Z,17.23
2018-11-25T15:19:25.969Z,12.30
2018-11-25T15:21:53.398Z,13.43
2018-11-25T15:24:20.792Z,15.00
2018-11-25T15:26:48.171Z,13.70
2018-11-25T15:29:15.593Z,16.73
2018-11-25T15:31:42.928Z,16.93
2018-11-25T15:34:10.356Z,16.33
2018-11-25T15:36:38.739Z,18.30
2018-11-25T15:39:09.619Z,15.53
2018-11-25T15:41:36.921Z,14.50
2018-11-25T15:44:05.414Z,16.40
2018-11-25T15:46:32.978Z,17.90
2018-11-25T15:49:01.540Z,19.23
2018-11-25T15:51:28.888Z,15.93
2018-11-25T15:53:56.265Z,18.50
2018-11-25T15:56:23.689Z,19.30
2018-11-25T15:58:51.114Z,18.97
2018-11-25T16:01:19.542Z,22.10
2018-11-25T16:03:46.957Z,18.40
2018-11-25T16:06:28.757Z,17.40
2018-11-25T16:08:56.171Z,18.23
2018-11-25T16:11:24.621Z,16.50
2018-11-25T16:13:51.999Z,15.53
2018-11-25T16:16:19.422Z,16.40
2018-11-25T16:18:46.854Z,16.80
2018-11-25T16:21:14.306Z,18.07
2018-11-25T16:23:41.705Z,19.27
2018-11-25T16:26:13.507Z,18.20
2018-11-25T16:28:42.806Z,17.93
2018-11-25T16:31:10.222Z,16.47
2018-11-25T16:33:37.594Z,18.33
2018-11-25T16:36:05.121Z,17.40
2018-11-25T16:38:34.503Z,17.10
2018-11-25T16:41:01.907Z,18.93
2018-11-25T16:43:29.346Z,17.73
2018-11-25T16:45:56.750Z,17.10
2018-11-25T16:48:24.225Z,19.60
2018-11-25T16:50:51.625Z,17.53
2018-11-25T16:53:18.982Z,18.50
2018-11-25T16:55:46.332Z,19.97
2018-11-25T16:58:13.766Z,20.03
2018-11-25T17:00:41.218Z,18.60
2018-11-25T17:03:08.584Z,20.13
2018-11-25T17:05:37.875Z,20.27
2018-11-25T17:08:10.578Z,26.13
2018-11-25T17:10:37.988Z,25.40
2018-11-25T17:13:05.923Z,21.83
2018-11-25T17:15:33.308Z,19.47
2018-11-25T17:18:00.657Z,22.10
2018-11-25T17:20:28.228Z,21.50
2018-11-25T17:22:55.583Z,26.00
2018-11-25T17:25:22.994Z,30.53
2018-11-25T17:27:50.392Z,30.33
2018-11-25T17:30:18.731Z,25.07
2018-11-25T17:32:46.803Z,21.57
2018-11-25T17:35:19.387Z,24.07
2018-11-25T17:37:47.866Z,20.47
2018-11-25T17:40:15.278Z,22.93
2018-11-25T17:42:42.702Z,22.33
2018-11-25T17:45:11.312Z,22.03
2018-11-25T17:47:38.760Z,20.83
2018-11-25T17:50:13.625Z,20.10
2018-11-25T17:52:41.088Z,18.80
2018-11-25T17:55:09.846Z,19.90
2018-11-25T17:57:37.238Z,24.50
2018-11-25T18:00:13.018Z,24.00
2018-11-25T18:02:40.429Z,24.40
2018-11-25T18:05:08.151Z,19.37
2018-11-25T18:07:35.549Z,22.90
2018-11-25T18:10:02.998Z,21.27
2018-11-25T18:12:30.391Z,23.17
2018-11-25T18:14:57.839Z,21.83
2018-11-25T18:17:25.253Z,21.17
2018-11-25T18:19:52.652Z,21.83
2018-11-25T18:22:23.787Z,23.37
2018-11-25T18:24:51.190Z,21.20
2018-11-25T18:27:18.697Z,21.37
2018-11-25T18:29:46.103Z,24.00
2018-11-25T18:32:13.501Z,23.20
2018-11-25T18:34:40.864Z,24.73
2018-11-25T18:37:08.269Z,24.43
2018-11-25T18:39:35.676Z,22.90
2018-11-25T18:42:03.096Z,21.63
2018-11-25T18:44:30.450Z,25.80
2018-11-25T18:46:57.901Z,24.13
2018-11-25T18:49:25.241Z,25.40
2018-11-25T18:51:52.599Z,24.43
2018-11-25T18:54:20.050Z,23.63
2018-11-25T18:56:47.444Z,22.70
2018-11-25T18:59:14.914Z,23.80
2018-11-25T19:01:44.919Z,22.97
2018-11-25T19:04:12.363Z,23.30
2018-11-25T19:06:39.732Z,26.03
2018-11-25T19:09:08.897Z,25.30
2018-11-25T19:11:36.651Z,26.40
2018-11-25T19:14:04.127Z,26.23
2018-11-25T19:16:31.465Z,23.53
2018-11-25T19:18:58.865Z,24.40
2018-11-25T19:21:26.267Z,23.67
2018-11-25T19:23:53.761Z,22.10
2018-11-25T19:26:21.123Z,22.67
2018-11-25T19:28:48.446Z,24.73
2018-11-25T19:31:15.770Z,26.13
2018-11-25T19:33:43.252Z,26.80
2018-11-25T19:36:10.604Z,24.77
2018-11-25T19:38:37.989Z,30.30
2018-11-25T19:41:06.179Z,25.23
2018-11-25T19:43:33.634Z,25.47
2018-11-25T19:46:01.006Z,23.40
2018-11-25T19:48:28.503Z,26.33
2018-11-25T19:50:55.857Z,21.37
2018-11-25T19:53:23.206Z,25.30
2018-11-25T19:55:50.539Z,24.03
2018-11-25T19:58:17.961Z,25.93
2018-11-25T20:00:45.301Z,24.20
2018-11-25T20:03:12.683Z,22.43
2018-11-25T20:05:40.071Z,25.70
2018-11-25T20:08:07.624Z,24.50
2018-11-25T20:10:35.021Z,24.57
2018-11-25T20:13:02.430Z,24.67
2018-11-25T20:15:29.769Z,26.57
2018-11-25T20:17:57.121Z,23.73
2018-11-25T20:20:25.681Z,27.50
2018-11-25T20:22:54.710Z,24.33
2018-11-25T20:25:22.200Z,26.03
2018-11-25T20:27:53.811Z,22.97
2018-11-25T20:30:22.575Z,28.10
2018-11-25T20:32:55.821Z,26.40
2018-11-25T20:35:23.188Z,26.30
2018-11-25T20:37:56.255Z,22.57
2018-11-25T20:40:23.677Z,22.67
2018-11-25T20:42:51.143Z,27.07
2018-11-25T20:45:25.235Z,25.53
2018-11-25T20:47:52.987Z,21.60
2018-11-25T20:50:20.386Z,19.17
2018-11-25T20:52:53.417Z,23.00
2018-11-25T20:55:20.818Z,23.17
2018-11-25T20:57:48.184Z,20.90
2018-11-25T21:00:16.806Z,22.33
2018-11-25T21:02:44.183Z,25.40
2018-11-25T21:05:12.360Z,23.50
2018-11-25T21:07:39.761Z,19.07
2018-11-25T21:10:10.412Z,21.33
2018-11-25T21:12:37.915Z,20.90
2018-11-25T21:15:06.811Z,22.17
2018-11-25T21:17:34.173Z,24.17
2018-11-25T21:20:01.537Z,23.10
2018-11-25T21:22:28.883Z,23.33
2018-11-25T21:24:56.248Z,21.40
2018-11-25T21:27:23.653Z,20.67
2018-11-25T21:29:51.040Z,26.33
2018-11-25T21:32:18.448Z,23.33
2018-11-25T21:34:45.879Z,22.77
2018-11-25T21:37:13.217Z,26.97
2018-11-25T21:39:40.618Z,28.30
2018-11-25T21:42:07.950Z,27.30
2018-11-25T21:44:35.381Z,25.83
2018-11-25T21:47:02.770Z,26.97
2018-11-25T21:49:30.161Z,27.23
2018-11-25T21:51:57.538Z,25.50
2018-11-25T21:54:25.012Z,28.73
2018-11-25T21:56:52.366Z,23.50
2018-11-25T21:59:19.844Z,22.03
2018-11-25T22:01:47.196Z,25.07
2018-11-25T22:04:14.604Z,23.70
2018-11-25T22:06:41.957Z,25.10
2018-11-25T22:09:09.491Z,28.20
2018-11-25T22:11:37.045Z,26.40
2018-11-25T22:14:04.896Z,25.40
2018-11-25T22:16:32.313Z,23.57
2018-11-25T22:18:59.699Z,25.80
2018-11-25T22:21:27.056Z,24.47
2018-11-25T22:23:54.750Z,22.73
2018-11-25T22:26:22.150Z,24.17
2018-11-25T22:28:49.565Z,23.70
2018-11-25T22:31:16.959Z,25.20
2018-11-25T22:33:44.327Z,23.00
2018-11-25T22:36:11.646Z,26.43
2018-11-25T22:38:39.003Z,24.37
2018-11-25T22:41:06.406Z,22.30
2018-11-25T22:43:33.843Z,24.80
2018-11-25T22:46:01.260Z,27.27
2018-11-25T22:48:28.620Z,25.80
2018-11-25T22:50:56.034Z,26.03
2018-11-25T22:53:23.405Z,25.40
2018-11-25T22:55:50.763Z,26.03
2018-11-25T22:58:18.176Z,23.03
2018-11-25T23:00:46.596Z,23.53
2018-11-25T23:03:14.009Z,25.47
2018-11-25T23:05:52.932Z,24.00
2018-11-25T23:08:20.280Z,31.37
2018-11-25T23:10:47.665Z,28.10
2018-11-25T23:13:15.039Z,28.10
2018-11-25T23:15:42.404Z,30.80
2018-11-25T23:18:09.853Z,31.37
2018-11-25T23:20:37.298Z,29.07
2018-11-25T23:23:05.511Z,29.40
2018-11-25T23:25:32.916Z,31.83
2018-11-25T23:28:00.263Z,30.00
2018-11-25T23:30:27.677Z,32.23
2018-11-25T23:32:55.045Z,27.87
2018-11-25T23:35:26.864Z,33.27
2018-11-25T23:37:54.276Z,26.90
2018-11-25T23:40:21.651Z,30.10
2018-11-25T23:42:49.056Z,28.37
2018-11-25T23:45:16.695Z,29.70
2018-11-25T23:47:44.152Z,33.30
2018-11-25T23:50:12.528Z,28.47
2018-11-25T23:52:40.351Z,31.90
2018-11-25T23:55:09.979Z,29.50
2018-11-25T23:57:37.652Z,29.53
